TimeGMT,TemperatureF,Dew PointF,Humidity,Sea Level PressureIn,VisibilityMPH,Wind Direction,Wind SpeedMPH,Gust SpeedMPH,PrecipitationIn,Events,Conditions,WindDirDegrees,DateUTC
6:20 AM,39.2,39.2,100,30.15,0.7,WNW,4.6,-,N/A,,Mostly Cloudy,300,2012-11-15 06:20:00
6:50 AM,39.2,39.2,100,30.15,0.6,NW,4.6,-,N/A,,Mostly Cloudy,320,2012-11-15 06:50:00
7:20 AM,39.2,39.2,100,30.15,0.9,NW,4.6,-,N/A,,Scattered Clouds,320,2012-11-15 07:20:00
7:50 AM,39.2,39.2,100,30.15,0.9,NW,4.6,-,N/A,,Scattered Clouds,310,2012-11-15 07:50:00
8:20 AM,41.0,39.2,93,30.15,1.6,WNW,4.6,-,N/A,,Scattered Clouds,300,2012-11-15 08:20:00
8:50 AM,41.0,41.0,100,30.15,2.5,WNW,4.6,-,N/A,,Mostly Cloudy,300,2012-11-15 08:50:00
9:20 AM,41.0,41.0,100,30.15,2.5,NW,4.6,-,N/A,,Mostly Cloudy,310,2012-11-15 09:20:00
9:50 AM,41.0,41.0,100,30.12,0.6,WNW,2.3,-,N/A,,Mostly Cloudy,300,2012-11-15 09:50:00
10:20 AM,41.0,41.0,100,30.12,1.9,West,2.3,-,N/A,,Mostly Cloudy,260,2012-11-15 10:20:00
10:50 AM,41.0,41.0,100,30.09,2.2,WSW,1.2,-,N/A,,Mostly Cloudy,240,2012-11-15 10:50:00
11:20 AM,42.8,42.8,100,30.09,2.2,Calm,Calm,-,N/A,,Mostly Cloudy,0,2012-11-15 11:20:00
11:50 AM,42.8,41.0,93,30.06,2.8,Calm,Calm,-,N/A,,Mostly Cloudy,0,2012-11-15 11:50:00
12:20 PM,42.8,42.8,100,30.06,2.8,Calm,Calm,-,N/A,,Mostly Cloudy,0,2012-11-15 12:20:00
12:50 PM,42.8,42.8,100,30.04,2.5,Calm,Calm,-,N/A,,Mostly Cloudy,0,2012-11-15 12:50:00
1:20 PM,42.8,42.8,100,30.04,1.9,Calm,Calm,-,N/A,,Mostly Cloudy,0,2012-11-15 13:20:00
1:50 PM,42.8,42.8,100,30.04,1.9,Calm,Calm,-,N/A,,Drizzle,0,2012-11-15 13:50:00
2:20 PM,42.8,42.8,100,30.01,1.9,Calm,Calm,-,N/A,,Drizzle,0,2012-11-15 14:20:00
2:50 PM,42.8,42.8,100,30.01,1.9,WNW,1.2,-,N/A,,Light Drizzle,300,2012-11-15 14:50:00
3:20 PM,44.6,42.8,93,30.01,3.1,WNW,2.3,-,N/A,,Light Drizzle,300,2012-11-15 15:20:00
3:50 PM,44.6,42.8,93,30.01,2.5,WNW,2.3,-,N/A,,Light Drizzle,300,2012-11-15 15:50:00
4:20 PM,44.6,44.6,100,29.98,2.5,NW,2.3,-,N/A,,Light Drizzle,310,2012-11-15 16:20:00
4:50 PM,44.6,44.6,100,29.98,3.7,WNW,2.3,-,N/A,,Light Drizzle,300,2012-11-15 16:50:00
5:20 PM,46.4,44.6,93,29.98,4.3,WNW,3.5,-,N/A,,Light Drizzle,300,2012-11-15 17:20:00
5:50 PM,46.4,44.6,93,29.98,6.2,West,4.6,-,N/A,,Light Drizzle,280,2012-11-15 17:50:00
6:20 PM,46.4,44.6,93,29.98,6.2,West,4.6,-,N/A,,Mostly Cloudy,270,2012-11-15 18:20:00
6:50 PM,46.4,44.6,93,29.98,6.2,West,5.8,-,N/A,,Mostly Cloudy,260,2012-11-15 18:50:00
7:20 PM,46.4,44.6,93,29.98,6.2,West,6.9,-,N/A,,Mostly Cloudy,280,2012-11-15 19:20:00
7:50 PM,46.4,44.6,93,29.95,6.2,West,9.2,-,N/A,,Mostly Cloudy,260,2012-11-15 19:50:00
8:20 PM,46.4,44.6,93,29.95,6.2,West,4.6,-,N/A,,Scattered Clouds,260,2012-11-15 20:20:00
8:50 PM,46.4,44.6,93,29.95,6.2,WSW,16.1,-,N/A,,Scattered Clouds,250,2012-11-15 20:50:00
9:20 PM,46.4,42.8,87,29.95,6.2,West,3.5,-,N/A,,Scattered Clouds,280,2012-11-15 21:20:00
9:50 PM,46.4,44.6,93,29.92,6.2,West,4.6,-,N/A,,Scattered Clouds,280,2012-11-15 21:50:00